Flight Track Log - Related Links

Times and Time Zones

All times are in EDT time to prevent confusion due to time zone crossing. See the EJA929 flight status page for this flight to view local times or setup timezone preferences in your user account.

Time Position Orientation Groundspeed Altitude Reporting Facility
EDT Latitude Longitude Course Direction KTS MPH feet Rate Location/Type
Sun 02:04:19 PM 43.8000 -87.8333 270° West 366 421 2,700  Level KMKE
Sun 02:05:31 PM 43.8000 -87.8833 270° West 204 235 5,300 2,549 Climbing KMKE
Sun 02:06:12 PM 43.7600 -87.8897 187° South 221 254 7,500 3,146 Climbing Chicago Center
Sun 02:07:14 PM 43.6947 -87.8764 172° South 233 268 10,700 2,565 Climbing Chicago Center
Sun 02:08:16 PM 43.6142 -87.8622 173° South 281 323 12,800 1,161 Climbing Chicago Center
Sun 02:09:18 PM 43.5114 -87.8450 173° South 363 418 13,100 145 Climbing Chicago Center
Sun 02:10:20 PM 43.3772 -87.7997 166° South 422 486 13,100 -48 Level Chicago Center
Sun 02:11:22 PM 43.2614 -87.7550 164° South 427 491 13,000 -532 Descending Chicago Center
Sun 02:12:24 PM 43.1475 -87.7103 164° South 425 489 12,000 -823 Descending Chicago Center
Sun 02:13:26 PM 43.0322 -87.6678 165° South 426 490 11,300 -532 Descending Chicago Center
Sun 02:14:28 PM 42.9217 -87.6283 165° South 415 478 10,900 -339 Descending Chicago Center
Sun 02:15:30 PM 42.8383 -87.5967 164° South 324 373 10,600 -968 Descending Chicago Center
Sun 02:16:32 PM 42.7442 -87.5761 171° South 296 341 8,900 -1,984 Descending Chicago Center
Sun 02:17:34 PM 42.6642 -87.5672 175° South 290 334 6,500 -2,274 Descending Chicago Center
Sun 02:18:36 PM 42.5856 -87.5619 177° South 284 327 4,200 -1,210 Descending Chicago Center
Sun 02:19:38 PM 42.5108 -87.5561 177° South 273 314 4,000 -97 Descending Chicago Center
Sun 02:20:40 PM 42.4361 -87.5492 176° South 269 310 4,000  Level Chicago Center
Sun 02:21:43 PM 42.3622 -87.5219 165° South 272 313 4,000 -48 Level Chicago Center
Sun 02:22:45 PM 42.2786 -87.5150 176° South 273 314 3,900  Descending Chicago Center
Sun 02:23:47 PM 42.2042 -87.5122 178° South 269 310 4,000 48 Climbing Chicago Center
Sun 02:24:49 PM 42.1297 -87.5072 177° South 268 308 4,000  Level Chicago Center
Sun 02:25:51 PM 42.0547 -87.5028 177° South 269 310 4,000  Level Chicago Center
Sun 02:26:53 PM 41.9661 -87.4967 177° South 269 310 4,000 -48 Level Chicago Center
Sun 02:27:55 PM 41.8908 -87.4928 178° South 269 310 3,900 -48 Descending Chicago Center
Sun 02:28:57 PM 41.8267 -87.5547 216° Southwest 271 312 3,900 48 Level Chicago Center
Sun 02:29:59 PM 41.7725 -87.6100 217° Southwest 267 307 4,000  Climbing Chicago Center
Sun 02:31:01 PM 41.7217 -87.6739 223° Southwest 259 298 3,900 -677 Descending Chicago Center
Sun 02:32:03 PM 41.6939 -87.7467 243° Southwest 216 249 2,600 -960 Descending Chicago Center
Sun 02:33:06 PM 41.7258 -87.8000 309° West 196 226 1,900 -720 Descending Chicago Center
Sun 02:34:08 PM 41.7639 -87.7800 21° North 173 199 1,100 -484 Descending Chicago Center
Sun 02:35:10 PM 41.7883 -87.7456 46° Northeast 165 190 900 -194 Descending Chicago Center

Login

Don't have an account? Register now (free) for customized features, flight alerts, and more!